sensor_id;sensor_type;location;lat;lon;timestamp;temperature;humidity
11540;DHT22;5826;54.756;9.192;2022-10-26T00:01:05;13.50;99.90
11540;DHT22;5826;54.756;9.192;2022-10-26T00:03:32;13.60;99.90
11540;DHT22;5826;54.756;9.192;2022-10-26T00:06:10;13.50;99.90
11540;DHT22;5826;54.756;9.192;2022-10-26T00:08:36;13.50;99.90
11540;DHT22;5826;54.756;9.192;2022-10-26T00:11:02;13.50;99.90
11540;DHT22;5826;54.756;9.192;2022-10-26T00:13:27;13.50;99.90
11540;DHT22;5826;54.756;9.192;2022-10-26T00:15:53;13.50;99.90
11540;DHT22;5826;54.756;9.192;2022-10-26T00:18:19;13.50;99.90
11540;DHT22;5826;54.756;9.192;2022-10-26T00:20:45;13.50;99.90
11540;DHT22;5826;54.756;9.192;2022-10-26T00:23:10;13.50;99.90
11540;DHT22;5826;54.756;9.192;2022-10-26T00:25:36;13.50;99.90
11540;DHT22;5826;54.756;9.192;2022-10-26T00:28:02;13.50;99.90
11540;DHT22;5826;54.756;9.192;2022-10-26T00:30:27;13.50;99.90
11540;DHT22;5826;54.756;9.192;2022-10-26T00:32:53;13.50;99.90
11540;DHT22;5826;54.756;9.192;2022-10-26T00:35:18;13.50;99.90
11540;DHT22;5826;54.756;9.192;2022-10-26T00:37:44;13.50;99.90
11540;DHT22;5826;54.756;9.192;2022-10-26T00:40:10;13.50;99.90
11540;DHT22;5826;54.756;9.192;2022-10-26T00:42:36;13.50;99.90
11540;DHT22;5826;54.756;9.192;2022-10-26T00:45:19;13.50;99.90
11540;DHT22;5826;54.756;9.192;2022-10-26T00:47:52;13.50;99.90
11540;DHT22;5826;54.756;9.192;2022-10-26T00:50:25;13.50;99.90
11540;DHT22;5826;54.756;9.192;2022-10-26T00:52:53;13.50;99.90
11540;DHT22;5826;54.756;9.192;2022-10-26T00:55:21;13.50;99.90
11540;DHT22;5826;54.756;9.192;2022-10-26T00:57:48;13.50;99.90
11540;DHT22;5826;54.756;9.192;2022-10-26T01:00:15;13.50;99.90
11540;DHT22;5826;54.756;9.192;2022-10-26T01:02:41;13.40;99.90
11540;DHT22;5826;54.756;9.192;2022-10-26T01:05:08;13.40;99.90
11540;DHT22;5826;54.756;9.192;2022-10-26T01:07:34;13.40;99.90
11540;DHT22;5826;54.756;9.192;2022-10-26T01:10:00;13.40;99.90
11540;DHT22;5826;54.756;9.192;2022-10-26T01:12:26;13.40;99.90
11540;DHT22;5826;54.756;9.192;2022-10-26T01:14:51;13.40;99.90
11540;DHT22;5826;54.756;9.192;2022-10-26T01:23:04;13.30;99.90
11540;DHT22;5826;54.756;9.192;2022-10-26T01:25:49;13.40;99.90
11540;DHT22;5826;54.756;9.192;2022-10-26T01:31:00;13.40;99.90
11540;DHT22;5826;54.756;9.192;2022-10-26T01:33:31;13.40;99.90
11540;DHT22;5826;54.756;9.192;2022-10-26T01:36:36;13.40;99.90
11540;DHT22;5826;54.756;9.192;2022-10-26T01:39:18;13.40;99.90
11540;DHT22;5826;54.756;9.192;2022-10-26T01:41:49;13.40;99.90
11540;DHT22;5826;54.756;9.192;2022-10-26T01:44:22;13.40;99.90
11540;DHT22;5826;54.756;9.192;2022-10-26T01:46:51;13.40;99.90
11540;DHT22;5826;54.756;9.192;2022-10-26T01:49:23;13.40;99.90
11540;DHT22;5826;54.756;9.192;2022-10-26T01:51:50;13.30;99.90
11540;DHT22;5826;54.756;9.192;2022-10-26T01:54:15;13.30;99.90
11540;DHT22;5826;54.756;9.192;2022-10-26T01:56:44;13.30;99.90
11540;DHT22;5826;54.756;9.192;2022-10-26T01:59:41;13.30;99.90
11540;DHT22;5826;54.756;9.192;2022-10-26T02:13:15;13.40;99.90
11540;DHT22;5826;54.756;9.192;2022-10-26T02:15:57;13.40;99.90
11540;DHT22;5826;54.756;9.192;2022-10-26T02:21:13;13.40;99.90
11540;DHT22;5826;54.756;9.192;2022-10-26T02:23:41;13.40;99.90
11540;DHT22;5826;54.756;9.192;2022-10-26T02:26:11;13.40;99.90
11540;DHT22;5826;54.756;9.192;2022-10-26T02:28:41;13.40;99.90
11540;DHT22;5826;54.756;9.192;2022-10-26T02:31:08;13.50;99.90
11540;DHT22;5826;54.756;9.192;2022-10-26T02:33:40;13.50;99.90
11540;DHT22;5826;54.756;9.192;2022-10-26T02:36:10;13.50;99.90
11540;DHT22;5826;54.756;9.192;2022-10-26T02:38:36;13.50;99.90
11540;DHT22;5826;54.756;9.192;2022-10-26T02:41:04;13.40;99.90
11540;DHT22;5826;54.756;9.192;2022-10-26T02:43:35;13.40;99.90
11540;DHT22;5826;54.756;9.192;2022-10-26T02:46:06;13.50;99.90
11540;DHT22;5826;54.756;9.192;2022-10-26T02:48:32;13.50;99.90
11540;DHT22;5826;54.756;9.192;2022-10-26T02:51:16;13.50;99.90
11540;DHT22;5826;54.756;9.192;2022-10-26T02:54:04;13.50;99.90
11540;DHT22;5826;54.756;9.192;2022-10-26T02:56:41;13.50;99.90
11540;DHT22;5826;54.756;9.192;2022-10-26T02:59:10;13.50;99.90
11540;DHT22;5826;54.756;9.192;2022-10-26T03:01:37;13.50;99.90
11540;DHT22;5826;54.756;9.192;2022-10-26T03:04:04;13.50;99.90
11540;DHT22;5826;54.756;9.192;2022-10-26T03:06:29;13.50;99.90
11540;DHT22;5826;54.756;9.192;2022-10-26T03:08:55;13.50;99.90
11540;DHT22;5826;54.756;9.192;2022-10-26T03:11:20;13.50;99.90
11540;DHT22;5826;54.756;9.192;2022-10-26T03:13:46;13.50;99.90
11540;DHT22;5826;54.756;9.192;2022-10-26T03:16:11;13.40;99.90
11540;DHT22;5826;54.756;9.192;2022-10-26T03:18:37;13.40;99.90
11540;DHT22;5826;54.756;9.192;2022-10-26T03:21:02;13.40;99.90
11540;DHT22;5826;54.756;9.192;2022-10-26T03:23:28;13.40;99.90
11540;DHT22;5826;54.756;9.192;2022-10-26T03:25:58;13.30;99.90
11540;DHT22;5826;54.756;9.192;2022-10-26T03:28:23;13.30;99.90
11540;DHT22;5826;54.756;9.192;2022-10-26T03:30:49;13.20;99.90
11540;DHT22;5826;54.756;9.192;2022-10-26T03:33:14;13.20;99.90
11540;DHT22;5826;54.756;9.192;2022-10-26T03:35:40;13.20;99.90
11540;DHT22;5826;54.756;9.192;2022-10-26T03:38:05;13.20;99.90
11540;DHT22;5826;54.756;9.192;2022-10-26T03:40:31;13.20;99.90
11540;DHT22;5826;54.756;9.192;2022-10-26T03:42:56;13.20;99.90
11540;DHT22;5826;54.756;9.192;2022-10-26T03:45:22;13.20;99.90
11540;DHT22;5826;54.756;9.192;2022-10-26T03:47:48;13.10;99.90
11540;DHT22;5826;54.756;9.192;2022-10-26T03:50:18;13.10;99.90
11540;DHT22;5826;54.756;9.192;2022-10-26T03:52:44;13.10;99.90
11540;DHT22;5826;54.756;9.192;2022-10-26T03:55:10;13.10;99.90
11540;DHT22;5826;54.756;9.192;2022-10-26T03:57:40;13.00;99.90
11540;DHT22;5826;54.756;9.192;2022-10-26T04:00:06;13.00;99.90
11540;DHT22;5826;54.756;9.192;2022-10-26T04:02:32;12.90;99.90
11540;DHT22;5826;54.756;9.192;2022-10-26T04:04:57;12.90;99.90
11540;DHT22;5826;54.756;9.192;2022-10-26T04:07:22;12.90;99.90
11540;DHT22;5826;54.756;9.192;2022-10-26T04:09:48;12.90;99.90
11540;DHT22;5826;54.756;9.192;2022-10-26T04:12:13;12.80;99.90
11540;DHT22;5826;54.756;9.192;2022-10-26T04:14:39;12.80;99.90
11540;DHT22;5826;54.756;9.192;2022-10-26T04:17:04;12.80;99.90
11540;DHT22;5826;54.756;9.192;2022-10-26T04:19:30;12.80;99.90
11540;DHT22;5826;54.756;9.192;2022-10-26T04:21:55;12.70;99.90
11540;DHT22;5826;54.756;9.192;2022-10-26T04:24:21;12.70;99.90
11540;DHT22;5826;54.756;9.192;2022-10-26T04:26:46;12.70;99.90
11540;DHT22;5826;54.756;9.192;2022-10-26T04:29:12;12.60;99.90
11540;DHT22;5826;54.756;9.192;2022-10-26T04:31:38;12.60;99.90
11540;DHT22;5826;54.756;9.192;2022-10-26T04:34:03;12.60;99.90
11540;DHT22;5826;54.756;9.192;2022-10-26T04:36:29;12.60;99.90
11540;DHT22;5826;54.756;9.192;2022-10-26T04:38:55;12.60;99.90
11540;DHT22;5826;54.756;9.192;2022-10-26T04:41:20;12.60;99.90
11540;DHT22;5826;54.756;9.192;2022-10-26T04:43:46;12.60;99.90
11540;DHT22;5826;54.756;9.192;2022-10-26T04:46:11;12.50;99.90
11540;DHT22;5826;54.756;9.192;2022-10-26T04:48:38;12.50;99.90
11540;DHT22;5826;54.756;9.192;2022-10-26T04:51:04;12.50;99.90
11540;DHT22;5826;54.756;9.192;2022-10-26T04:53:29;12.50;99.90
11540;DHT22;5826;54.756;9.192;2022-10-26T04:55:56;12.40;99.90
11540;DHT22;5826;54.756;9.192;2022-10-26T04:58:22;12.40;99.90
11540;DHT22;5826;54.756;9.192;2022-10-26T05:00:47;12.40;99.90
11540;DHT22;5826;54.756;9.192;2022-10-26T05:03:13;12.30;99.90
11540;DHT22;5826;54.756;9.192;2022-10-26T05:05:38;12.30;99.90
11540;DHT22;5826;54.756;9.192;2022-10-26T05:08:04;12.20;99.90
11540;DHT22;5826;54.756;9.192;2022-10-26T05:10:30;12.20;99.90
11540;DHT22;5826;54.756;9.192;2022-10-26T05:12:57;12.10;99.90
11540;DHT22;5826;54.756;9.192;2022-10-26T05:15:23;12.10;99.90
11540;DHT22;5826;54.756;9.192;2022-10-26T05:18:01;12.10;99.90
11540;DHT22;5826;54.756;9.192;2022-10-26T05:20:32;12.10;99.90
11540;DHT22;5826;54.756;9.192;2022-10-26T05:22:59;12.00;99.90
11540;DHT22;5826;54.756;9.192;2022-10-26T05:25:27;12.00;99.90
11540;DHT22;5826;54.756;9.192;2022-10-26T05:28:06;12.00;99.90
11540;DHT22;5826;54.756;9.192;2022-10-26T05:30:34;12.00;99.90
11540;DHT22;5826;54.756;9.192;2022-10-26T05:33:00;11.90;99.90
11540;DHT22;5826;54.756;9.192;2022-10-26T05:35:29;11.90;99.90
11540;DHT22;5826;54.756;9.192;2022-10-26T05:37:55;11.90;99.90
11540;DHT22;5826;54.756;9.192;2022-10-26T05:40:21;11.90;99.90
11540;DHT22;5826;54.756;9.192;2022-10-26T05:42:46;11.90;99.90
11540;DHT22;5826;54.756;9.192;2022-10-26T05:45:13;11.90;99.90
11540;DHT22;5826;54.756;9.192;2022-10-26T05:47:42;11.90;99.90
11540;DHT22;5826;54.756;9.192;2022-10-26T05:50:10;11.90;99.90
11540;DHT22;5826;54.756;9.192;2022-10-26T05:52:40;11.90;99.90
11540;DHT22;5826;54.756;9.192;2022-10-26T05:55:08;11.90;99.90
11540;DHT22;5826;54.756;9.192;2022-10-26T05:57:34;11.80;99.90
11540;DHT22;5826;54.756;9.192;2022-10-26T06:00:00;11.80;99.90
11540;DHT22;5826;54.756;9.192;2022-10-26T06:02:33;11.80;99.90
11540;DHT22;5826;54.756;9.192;2022-10-26T06:05:04;11.70;99.90
11540;DHT22;5826;54.756;9.192;2022-10-26T06:07:30;11.70;99.90
11540;DHT22;5826;54.756;9.192;2022-10-26T06:09:55;11.70;99.90
11540;DHT22;5826;54.756;9.192;2022-10-26T06:12:21;11.70;99.90
11540;DHT22;5826;54.756;9.192;2022-10-26T06:14:47;11.70;99.90
11540;DHT22;5826;54.756;9.192;2022-10-26T06:17:36;11.70;99.90
11540;DHT22;5826;54.756;9.192;2022-10-26T06:22:52;11.70;99.90
11540;DHT22;5826;54.756;9.192;2022-10-26T06:28:07;11.60;99.90
11540;DHT22;5826;54.756;9.192;2022-10-26T06:30:39;11.60;99.90
11540;DHT22;5826;54.756;9.192;2022-10-26T06:33:06;11.60;99.90
11540;DHT22;5826;54.756;9.192;2022-10-26T06:38:20;11.60;99.90
11540;DHT22;5826;54.756;9.192;2022-10-26T06:40:51;11.60;99.90
11540;DHT22;5826;54.756;9.192;2022-10-26T06:43:28;11.60;99.90
11540;DHT22;5826;54.756;9.192;2022-10-26T06:51:30;11.60;99.90
11540;DHT22;5826;54.756;9.192;2022-10-26T06:56:43;11.60;99.90
11540;DHT22;5826;54.756;9.192;2022-10-26T06:59:15;11.60;99.90
11540;DHT22;5826;54.756;9.192;2022-10-26T07:01:42;11.70;99.90
11540;DHT22;5826;54.756;9.192;2022-10-26T07:04:07;11.60;99.90
11540;DHT22;5826;54.756;9.192;2022-10-26T07:06:32;11.60;99.90
11540;DHT22;5826;54.756;9.192;2022-10-26T07:08:58;11.70;99.90
11540;DHT22;5826;54.756;9.192;2022-10-26T07:11:23;11.70;99.90
11540;DHT22;5826;54.756;9.192;2022-10-26T07:13:49;11.70;99.90
11540;DHT22;5826;54.756;9.192;2022-10-26T07:16:16;11.80;99.90
11540;DHT22;5826;54.756;9.192;2022-10-26T07:18:41;11.80;99.90
11540;DHT22;5826;54.756;9.192;2022-10-26T07:21:07;11.80;99.90
11540;DHT22;5826;54.756;9.192;2022-10-26T07:23:32;11.80;99.90
11540;DHT22;5826;54.756;9.192;2022-10-26T07:25:59;11.80;99.90
11540;DHT22;5826;54.756;9.192;2022-10-26T07:28:24;11.90;99.90
11540;DHT22;5826;54.756;9.192;2022-10-26T07:30:50;11.90;99.90
11540;DHT22;5826;54.756;9.192;2022-10-26T07:33:15;11.90;99.90
11540;DHT22;5826;54.756;9.192;2022-10-26T07:35:41;11.90;99.90
11540;DHT22;5826;54.756;9.192;2022-10-26T07:38:07;11.90;99.90
11540;DHT22;5826;54.756;9.192;2022-10-26T07:40:32;12.20;99.90
11540;DHT22;5826;54.756;9.192;2022-10-26T07:42:59;12.00;99.90
11540;DHT22;5826;54.756;9.192;2022-10-26T07:45:28;12.00;99.90
11540;DHT22;5826;54.756;9.192;2022-10-26T07:47:54;12.10;99.90
11540;DHT22;5826;54.756;9.192;2022-10-26T07:50:20;12.10;99.90
11540;DHT22;5826;54.756;9.192;2022-10-26T07:52:46;12.10;99.90
11540;DHT22;5826;54.756;9.192;2022-10-26T07:55:11;12.20;99.90
11540;DHT22;5826;54.756;9.192;2022-10-26T07:57:37;12.20;99.90
11540;DHT22;5826;54.756;9.192;2022-10-26T08:00:04;12.20;99.90
11540;DHT22;5826;54.756;9.192;2022-10-26T08:02:30;12.30;99.90
11540;DHT22;5826;54.756;9.192;2022-10-26T08:04:56;12.30;99.90
11540;DHT22;5826;54.756;9.192;2022-10-26T08:07:21;12.30;99.90
11540;DHT22;5826;54.756;9.192;2022-10-26T08:09:47;12.40;99.90
11540;DHT22;5826;54.756;9.192;2022-10-26T08:12:12;12.40;99.90
11540;DHT22;5826;54.756;9.192;2022-10-26T08:14:41;12.40;99.90
11540;DHT22;5826;54.756;9.192;2022-10-26T08:17:07;12.50;99.90
11540;DHT22;5826;54.756;9.192;2022-10-26T08:19:32;12.50;99.90
11540;DHT22;5826;54.756;9.192;2022-10-26T08:21:58;12.60;99.90
11540;DHT22;5826;54.756;9.192;2022-10-26T08:24:23;12.60;99.90
11540;DHT22;5826;54.756;9.192;2022-10-26T08:26:49;12.60;99.90
11540;DHT22;5826;54.756;9.192;2022-10-26T08:29:14;12.70;99.90
11540;DHT22;5826;54.756;9.192;2022-10-26T08:31:39;12.70;99.90
11540;DHT22;5826;54.756;9.192;2022-10-26T08:34:05;12.70;99.90
11540;DHT22;5826;54.756;9.192;2022-10-26T08:36:31;12.70;99.90
11540;DHT22;5826;54.756;9.192;2022-10-26T08:38:56;12.80;99.90
11540;DHT22;5826;54.756;9.192;2022-10-26T08:43:56;12.90;99.90
11540;DHT22;5826;54.756;9.192;2022-10-26T08:46:28;12.90;99.90
11540;DHT22;5826;54.756;9.192;2022-10-26T08:49:07;13.00;99.90
11540;DHT22;5826;54.756;9.192;2022-10-26T08:51:35;13.00;99.90
11540;DHT22;5826;54.756;9.192;2022-10-26T08:54:15;13.10;99.90
11540;DHT22;5826;54.756;9.192;2022-10-26T08:56:45;13.20;99.90
11540;DHT22;5826;54.756;9.192;2022-10-26T08:59:28;13.20;99.90
11540;DHT22;5826;54.756;9.192;2022-10-26T09:01:55;13.30;99.90
11540;DHT22;5826;54.756;9.192;2022-10-26T09:04:29;13.40;99.90
11540;DHT22;5826;54.756;9.192;2022-10-26T09:12:47;13.60;99.90
11540;DHT22;5826;54.756;9.192;2022-10-26T09:15:37;13.70;99.90
11540;DHT22;5826;54.756;9.192;2022-10-26T09:21:06;13.80;99.90
11540;DHT22;5826;54.756;9.192;2022-10-26T09:23:58;14.00;99.90
11540;DHT22;5826;54.756;9.192;2022-10-26T09:29:02;14.10;99.90
11540;DHT22;5826;54.756;9.192;2022-10-26T09:31:34;14.20;99.90
11540;DHT22;5826;54.756;9.192;2022-10-26T09:34:04;14.30;99.90
11540;DHT22;5826;54.756;9.192;2022-10-26T09:36:30;14.30;99.90
11540;DHT22;5826;54.756;9.192;2022-10-26T09:39:38;14.40;99.90
11540;DHT22;5826;54.756;9.192;2022-10-26T09:42:24;14.50;99.90
11540;DHT22;5826;54.756;9.192;2022-10-26T09:45:00;14.60;99.90
11540;DHT22;5826;54.756;9.192;2022-10-26T09:47:37;14.70;99.90
11540;DHT22;5826;54.756;9.192;2022-10-26T09:50:21;14.80;99.90
11540;DHT22;5826;54.756;9.192;2022-10-26T09:52:47;14.90;99.90
11540;DHT22;5826;54.756;9.192;2022-10-26T09:55:13;14.90;99.90
11540;DHT22;5826;54.756;9.192;2022-10-26T09:57:41;14.90;99.90
11540;DHT22;5826;54.756;9.192;2022-10-26T10:00:12;14.90;99.90
11540;DHT22;5826;54.756;9.192;2022-10-26T10:02:43;15.00;99.90
11540;DHT22;5826;54.756;9.192;2022-10-26T10:07:45;15.00;99.90
11540;DHT22;5826;54.756;9.192;2022-10-26T10:10:17;15.00;99.90
11540;DHT22;5826;54.756;9.192;2022-10-26T10:12:45;15.20;99.90
11540;DHT22;5826;54.756;9.192;2022-10-26T10:15:18;15.20;99.90
11540;DHT22;5826;54.756;9.192;2022-10-26T10:17:51;15.10;99.90
11540;DHT22;5826;54.756;9.192;2022-10-26T10:20:23;15.20;99.90
11540;DHT22;5826;54.756;9.192;2022-10-26T10:23:00;15.20;99.90
11540;DHT22;5826;54.756;9.192;2022-10-26T10:25:32;15.20;99.90
11540;DHT22;5826;54.756;9.192;2022-10-26T10:27:58;15.30;99.90
11540;DHT22;5826;54.756;9.192;2022-10-26T10:30:30;15.30;99.90
11540;DHT22;5826;54.756;9.192;2022-10-26T10:33:09;15.40;99.90
11540;DHT22;5826;54.756;9.192;2022-10-26T10:35:35;15.50;99.90
11540;DHT22;5826;54.756;9.192;2022-10-26T10:38:01;15.60;99.90
11540;DHT22;5826;54.756;9.192;2022-10-26T10:40:29;15.70;99.90
11540;DHT22;5826;54.756;9.192;2022-10-26T10:43:05;15.90;99.90
11540;DHT22;5826;54.756;9.192;2022-10-26T10:45:35;16.00;99.90
11540;DHT22;5826;54.756;9.192;2022-10-26T10:48:14;16.20;99.90
11540;DHT22;5826;54.756;9.192;2022-10-26T10:51:02;16.40;99.90
11540;DHT22;5826;54.756;9.192;2022-10-26T10:56:22;16.60;99.90
11540;DHT22;5826;54.756;9.192;2022-10-26T11:01:34;16.80;99.90
11540;DHT22;5826;54.756;9.192;2022-10-26T11:06:55;17.00;99.90
11540;DHT22;5826;54.756;9.192;2022-10-26T11:09:27;17.10;99.90
11540;DHT22;5826;54.756;9.192;2022-10-26T11:11:58;17.20;99.90
11540;DHT22;5826;54.756;9.192;2022-10-26T11:14:40;17.30;99.90
11540;DHT22;5826;54.756;9.192;2022-10-26T11:17:24;17.30;99.90
11540;DHT22;5826;54.756;9.192;2022-10-26T11:19:54;17.20;99.90
11540;DHT22;5826;54.756;9.192;2022-10-26T11:22:27;17.20;99.90
11540;DHT22;5826;54.756;9.192;2022-10-26T11:25:02;17.00;99.90
11540;DHT22;5826;54.756;9.192;2022-10-26T11:27:56;17.10;99.90
11540;DHT22;5826;54.756;9.192;2022-10-26T11:30:24;17.10;99.90
11540;DHT22;5826;54.756;9.192;2022-10-26T11:35:57;17.10;99.90
11540;DHT22;5826;54.756;9.192;2022-10-26T11:44:09;17.30;99.90
11540;DHT22;5826;54.756;9.192;2022-10-26T11:46:40;17.40;99.90
11540;DHT22;5826;54.756;9.192;2022-10-26T11:49:15;17.50;99.90
11540;DHT22;5826;54.756;9.192;2022-10-26T11:52:08;17.50;99.90
11540;DHT22;5826;54.756;9.192;2022-10-26T11:54:47;17.60;99.90
11540;DHT22;5826;54.756;9.192;2022-10-26T11:57:16;17.70;99.90
11540;DHT22;5826;54.756;9.192;2022-10-26T11:59:47;17.70;99.90
11540;DHT22;5826;54.756;9.192;2022-10-26T12:02:24;17.70;99.90
11540;DHT22;5826;54.756;9.192;2022-10-26T12:05:04;17.60;99.90
11540;DHT22;5826;54.756;9.192;2022-10-26T12:07:32;17.60;99.90
11540;DHT22;5826;54.756;9.192;2022-10-26T12:10:00;17.50;99.90
11540;DHT22;5826;54.756;9.192;2022-10-26T12:12:37;17.50;99.90
11540;DHT22;5826;54.756;9.192;2022-10-26T12:15:17;17.50;99.90
11540;DHT22;5826;54.756;9.192;2022-10-26T12:18:05;17.50;99.90
11540;DHT22;5826;54.756;9.192;2022-10-26T12:20:53;17.50;99.90
11540;DHT22;5826;54.756;9.192;2022-10-26T12:23:19;17.50;99.90
11540;DHT22;5826;54.756;9.192;2022-10-26T12:25:46;17.50;99.90
11540;DHT22;5826;54.756;9.192;2022-10-26T12:31:50;17.30;99.90
11540;DHT22;5826;54.756;9.192;2022-10-26T12:34:10;17.20;99.90
11540;DHT22;5826;54.756;9.192;2022-10-26T12:39:32;17.00;99.90
11540;DHT22;5826;54.756;9.192;2022-10-26T12:47:08;16.80;99.90
11540;DHT22;5826;54.756;9.192;2022-10-26T12:55:41;16.70;99.90
11540;DHT22;5826;54.756;9.192;2022-10-26T13:01:10;16.80;99.90
11540;DHT22;5826;54.756;9.192;2022-10-26T13:09:08;16.90;99.90
11540;DHT22;5826;54.756;9.192;2022-10-26T13:11:46;17.00;99.90
11540;DHT22;5826;54.756;9.192;2022-10-26T13:14:24;17.20;99.90
11540;DHT22;5826;54.756;9.192;2022-10-26T13:16:51;17.40;99.90
11540;DHT22;5826;54.756;9.192;2022-10-26T13:19:36;17.60;99.90
11540;DHT22;5826;54.756;9.192;2022-10-26T13:22:03;17.80;99.90
11540;DHT22;5826;54.756;9.192;2022-10-26T13:24:31;18.00;99.90
11540;DHT22;5826;54.756;9.192;2022-10-26T13:29:31;18.80;99.90
11540;DHT22;5826;54.756;9.192;2022-10-26T13:31:57;19.10;99.90
11540;DHT22;5826;54.756;9.192;2022-10-26T13:34:27;19.50;99.90
11540;DHT22;5826;54.756;9.192;2022-10-26T13:37:20;20.10;99.90
11540;DHT22;5826;54.756;9.192;2022-10-26T13:39:49;21.10;99.90
11540;DHT22;5826;54.756;9.192;2022-10-26T13:42:18;22.10;99.90
11540;DHT22;5826;54.756;9.192;2022-10-26T13:44:56;23.00;99.90
11540;DHT22;5826;54.756;9.192;2022-10-26T13:47:44;23.40;99.90
11540;DHT22;5826;54.756;9.192;2022-10-26T13:50:15;23.20;99.90
11540;DHT22;5826;54.756;9.192;2022-10-26T13:52:44;22.60;99.90
11540;DHT22;5826;54.756;9.192;2022-10-26T13:55:14;22.00;99.90
11540;DHT22;5826;54.756;9.192;2022-10-26T13:57:49;21.30;99.90
11540;DHT22;5826;54.756;9.192;2022-10-26T14:00:21;20.70;99.90
11540;DHT22;5826;54.756;9.192;2022-10-26T14:02:47;20.10;99.90
11540;DHT22;5826;54.756;9.192;2022-10-26T14:05:15;19.50;99.90
11540;DHT22;5826;54.756;9.192;2022-10-26T14:10:28;18.70;99.90
11540;DHT22;5826;54.756;9.192;2022-10-26T14:12:55;18.40;99.90
11540;DHT22;5826;54.756;9.192;2022-10-26T14:15:29;18.10;99.90
11540;DHT22;5826;54.756;9.192;2022-10-26T14:17:56;17.90;99.90
11540;DHT22;5826;54.756;9.192;2022-10-26T14:20:23;17.80;99.90
11540;DHT22;5826;54.756;9.192;2022-10-26T14:22:50;17.60;99.90
11540;DHT22;5826;54.756;9.192;2022-10-26T14:25:22;17.50;99.90
11540;DHT22;5826;54.756;9.192;2022-10-26T14:27:49;17.40;99.90
11540;DHT22;5826;54.756;9.192;2022-10-26T14:30:31;17.40;99.90
11540;DHT22;5826;54.756;9.192;2022-10-26T14:32:58;17.30;99.90
11540;DHT22;5826;54.756;9.192;2022-10-26T14:35:30;17.20;99.90
11540;DHT22;5826;54.756;9.192;2022-10-26T14:37:59;17.20;99.90
11540;DHT22;5826;54.756;9.192;2022-10-26T14:40:29;17.10;99.90
11540;DHT22;5826;54.756;9.192;2022-10-26T14:42:57;17.00;99.90
11540;DHT22;5826;54.756;9.192;2022-10-26T14:45:31;17.00;99.90
11540;DHT22;5826;54.756;9.192;2022-10-26T14:47:59;17.00;99.90
11540;DHT22;5826;54.756;9.192;2022-10-26T14:50:25;16.90;99.90
11540;DHT22;5826;54.756;9.192;2022-10-26T14:53:03;16.80;99.90
11540;DHT22;5826;54.756;9.192;2022-10-26T14:55:48;16.80;99.90
11540;DHT22;5826;54.756;9.192;2022-10-26T14:58:29;16.70;99.90
11540;DHT22;5826;54.756;9.192;2022-10-26T15:03:50;16.60;99.90
11540;DHT22;5826;54.756;9.192;2022-10-26T15:06:37;16.50;99.90
11540;DHT22;5826;54.756;9.192;2022-10-26T15:09:04;16.50;99.90
11540;DHT22;5826;54.756;9.192;2022-10-26T15:11:32;16.50;99.90
11540;DHT22;5826;54.756;9.192;2022-10-26T15:13:58;16.60;99.90
11540;DHT22;5826;54.756;9.192;2022-10-26T15:16:27;16.70;99.90
11540;DHT22;5826;54.756;9.192;2022-10-26T15:18:57;16.70;99.90
11540;DHT22;5826;54.756;9.192;2022-10-26T15:21:29;16.70;99.90
11540;DHT22;5826;54.756;9.192;2022-10-26T15:23:55;16.80;99.90
11540;DHT22;5826;54.756;9.192;2022-10-26T15:26:23;16.80;99.90
11540;DHT22;5826;54.756;9.192;2022-10-26T15:28:49;16.80;99.90
11540;DHT22;5826;54.756;9.192;2022-10-26T15:36:29;16.90;99.90
11540;DHT22;5826;54.756;9.192;2022-10-26T15:38:55;16.90;99.90
11540;DHT22;5826;54.756;9.192;2022-10-26T15:41:25;16.90;99.90
11540;DHT22;5826;54.756;9.192;2022-10-26T15:43:53;16.80;99.90
11540;DHT22;5826;54.756;9.192;2022-10-26T15:46:21;16.80;99.90
11540;DHT22;5826;54.756;9.192;2022-10-26T15:48:53;16.60;99.90
11540;DHT22;5826;54.756;9.192;2022-10-26T15:51:19;16.60;99.90
11540;DHT22;5826;54.756;9.192;2022-10-26T15:53:45;16.50;99.90
11540;DHT22;5826;54.756;9.192;2022-10-26T15:56:18;16.40;99.90
11540;DHT22;5826;54.756;9.192;2022-10-26T15:58:44;16.30;99.90
11540;DHT22;5826;54.756;9.192;2022-10-26T16:01:19;16.20;99.90
11540;DHT22;5826;54.756;9.192;2022-10-26T16:03:45;16.20;99.90
11540;DHT22;5826;54.756;9.192;2022-10-26T16:06:20;16.10;99.90
11540;DHT22;5826;54.756;9.192;2022-10-26T16:08:51;16.00;99.90
11540;DHT22;5826;54.756;9.192;2022-10-26T16:11:17;15.90;99.90
11540;DHT22;5826;54.756;9.192;2022-10-26T16:13:43;15.80;99.90
11540;DHT22;5826;54.756;9.192;2022-10-26T16:16:15;15.70;99.90
11540;DHT22;5826;54.756;9.192;2022-10-26T16:18:41;15.70;99.90
11540;DHT22;5826;54.756;9.192;2022-10-26T16:21:16;15.60;99.90
11540;DHT22;5826;54.756;9.192;2022-10-26T16:23:44;15.50;99.90
11540;DHT22;5826;54.756;9.192;2022-10-26T16:26:09;15.50;99.90
11540;DHT22;5826;54.756;9.192;2022-10-26T16:28:36;15.40;99.90
11540;DHT22;5826;54.756;9.192;2022-10-26T16:31:03;15.40;99.90
11540;DHT22;5826;54.756;9.192;2022-10-26T16:33:29;15.40;99.90
11540;DHT22;5826;54.756;9.192;2022-10-26T16:35:59;15.40;99.90
11540;DHT22;5826;54.756;9.192;2022-10-26T16:38:25;15.30;99.90
11540;DHT22;5826;54.756;9.192;2022-10-26T16:41:12;15.30;99.90
11540;DHT22;5826;54.756;9.192;2022-10-26T16:43:40;15.20;99.90
11540;DHT22;5826;54.756;9.192;2022-10-26T16:46:08;15.20;99.90
11540;DHT22;5826;54.756;9.192;2022-10-26T16:48:38;15.20;99.90
11540;DHT22;5826;54.756;9.192;2022-10-26T16:51:05;15.10;99.90
11540;DHT22;5826;54.756;9.192;2022-10-26T16:53:31;15.10;99.90
11540;DHT22;5826;54.756;9.192;2022-10-26T16:56:09;15.10;99.90
11540;DHT22;5826;54.756;9.192;2022-10-26T16:58:35;15.00;99.90
11540;DHT22;5826;54.756;9.192;2022-10-26T17:01:01;15.00;99.90
11540;DHT22;5826;54.756;9.192;2022-10-26T17:03:27;15.00;99.90
11540;DHT22;5826;54.756;9.192;2022-10-26T17:06:00;15.00;99.90
11540;DHT22;5826;54.756;9.192;2022-10-26T17:08:26;15.00;99.90
11540;DHT22;5826;54.756;9.192;2022-10-26T17:10:53;15.00;99.90
11540;DHT22;5826;54.756;9.192;2022-10-26T17:13:19;15.00;99.90
11540;DHT22;5826;54.756;9.192;2022-10-26T17:15:44;15.00;99.90
11540;DHT22;5826;54.756;9.192;2022-10-26T17:18:10;15.00;99.90
11540;DHT22;5826;54.756;9.192;2022-10-26T17:20:36;15.00;99.90
11540;DHT22;5826;54.756;9.192;2022-10-26T17:23:02;15.00;99.90
11540;DHT22;5826;54.756;9.192;2022-10-26T17:25:28;15.00;99.90
11540;DHT22;5826;54.756;9.192;2022-10-26T17:27:54;15.00;99.90
11540;DHT22;5826;54.756;9.192;2022-10-26T17:30:21;15.00;99.90
11540;DHT22;5826;54.756;9.192;2022-10-26T17:32:46;15.00;99.90
11540;DHT22;5826;54.756;9.192;2022-10-26T17:35:12;15.00;99.90
11540;DHT22;5826;54.756;9.192;2022-10-26T17:37:41;15.10;99.90
11540;DHT22;5826;54.756;9.192;2022-10-26T17:40:07;15.10;99.90
11540;DHT22;5826;54.756;9.192;2022-10-26T17:42:32;15.10;99.90
11540;DHT22;5826;54.756;9.192;2022-10-26T17:44:58;15.10;99.90
11540;DHT22;5826;54.756;9.192;2022-10-26T17:47:23;15.20;99.90
11540;DHT22;5826;54.756;9.192;2022-10-26T17:49:49;15.20;99.90
11540;DHT22;5826;54.756;9.192;2022-10-26T17:52:15;15.20;99.90